This is the latest recevied weather packets stored in our database for station/object KE9DBJ-13. If no packets are shown the sender has not sent any weather packets the latest 10 day(s).
| Time | Temp. | Humidity | Pressure | Rain* | Wind** | Luminosity | Snow |
|---|---|---|---|---|---|---|---|
| 1777609202 | 5° C | 99% | 1015.4 hPa | 0 mm | - | - | - |
| 1777608602 | 5° C | 99% | 1015.4 hPa | 0 mm | - | - | - |
| 1777608002 | 5° C | 99% | 1015.5 hPa | 0 mm | - | - | - |
| 1777607402 | 5° C | 99% | 1015.8 hPa | 0 mm | - | - | - |
| 1777606802 | 5.56° C | 99% | 1016 hPa | 0 mm | - | - | - |
| 1777606202 | 5.56° C | 98% | 1016.2 hPa | 0 mm | - | - | - |
| 1777605602 | 5.56° C | 98% | 1016.2 hPa | 0 mm | - | - | - |
| 1777605002 | 5.56° C | 97% | 1016.2 hPa | 0 mm | - | - | - |
| 1777604402 | 6.11° C | 95% | 1016 hPa | 0 mm | - | - | - |
| 1777603802 | 6.11° C | 97% | 1016 hPa | 0 mm | - | - | - |
| 1777603202 | 6.11° C | 95% | 1016.1 hPa | 0 mm | - | - | - |
| 1777602602 | 6.11° C | 95% | 1016 hPa | 0 mm | - | - | - |
| 1777602002 | 6.11° C | 94% | 1016 hPa | 0 mm | - | - | - |
| 1777601403 | 6.67° C | 90% | 1015.9 hPa | 0 mm | - | - | - |
| 1777600803 | 6.67° C | 85% | 1015.7 hPa | 0 mm | - | - | - |
| 1777600203 | 7.22° C | 87% | 1015.8 hPa | 0 mm | - | - | - |
| 1777599603 | 7.78° C | 80% | 1015.7 hPa | 0 mm | - | - | - |
| 1777599003 | 7.78° C | 85% | 1015.7 hPa | 0 mm | - | - | - |
| 1777598403 | 8.33° C | 84% | 1015.7 hPa | 0 mm | - | - | - |
| 1777597803 | 8.89° C | 82% | 1015.6 hPa | 0 mm | - | - | - |
| 1777597203 | 9.44° C | 76% | 1015.4 hPa | 0 mm | - | - | - |
| 1777596603 | 10° C | 71% | 1015.3 hPa | 0 mm | - | - | - |
| 1777596003 | 10.56° C | 67% | 1015.1 hPa | 0 mm | - | - | - |
| 1777595403 | 11.11° C | 64% | 1015.1 hPa | 0 mm | - | - | - |
| 1777594803 | 12.22° C | 54% | 1015 hPa | 0 mm | - | - | - |
* Rain latest hour (hover to see other rain measurements)
** Current wind speed in m/s (hover to see current wind gust speed)